Terminal Aerodrome Forecast
Issued by NWS

Home | Current Version | Previous Version | Text Only | Print | Product List | Glossary On
Versions: 1 2 3 4 5 6 7 8 9 10 11 12 13 14 15 16 17 18 19 20 21 22 23 24 25 26
760
FTUS43 KDTX 260912 AAA
TAFPTK
TAF AMD
KPTK 260912Z 2609/2706 23005KT 6SM -SHRA OVC070
     FM261000 20007KT 6SM HZ BKN035 OVC070
     FM261400 20010KT P6SM BKN070
     FM262000 18010KT P6SM SCT070=

USA.gov is the U.S. government's official web portal to all federal, state and local government web resources and services.